createdAt,value
2018-03-24T00:00:44.614Z,0.00
2018-03-24T00:01:44.481Z,0.00
2018-03-24T00:02:44.340Z,0.00
2018-03-24T00:03:44.205Z,0.00
2018-03-24T00:04:44.071Z,0.00
2018-03-24T00:05:43.932Z,0.00
2018-03-24T00:06:43.797Z,0.00
2018-03-24T00:07:43.661Z,0.00
2018-03-24T00:08:43.523Z,0.00
2018-03-24T00:09:43.390Z,0.00
2018-03-24T00:10:43.251Z,0.00
2018-03-24T00:11:43.117Z,0.00
2018-03-24T00:12:42.981Z,0.00
2018-03-24T00:13:42.847Z,0.00
2018-03-24T00:14:42.711Z,0.00
2018-03-24T00:15:42.574Z,0.00
2018-03-24T00:16:42.434Z,0.00
2018-03-24T00:17:42.304Z,0.00
2018-03-24T00:18:42.161Z,0.00
2018-03-24T00:19:42.027Z,0.00
2018-03-24T00:20:41.891Z,0.00
2018-03-24T00:21:41.753Z,0.00
2018-03-24T00:22:41.618Z,0.00
2018-03-24T00:23:41.482Z,0.00
2018-03-24T00:24:41.347Z,0.00
2018-03-24T00:25:41.212Z,0.00
2018-03-24T00:26:41.073Z,0.00
2018-03-24T00:27:40.936Z,0.00
2018-03-24T00:28:40.800Z,0.00
2018-03-24T00:29:40.675Z,0.00
2018-03-24T00:30:40.527Z,0.00
2018-03-24T00:31:40.397Z,0.00
2018-03-24T00:32:40.255Z,0.00
2018-03-24T00:33:40.121Z,0.00
2018-03-24T00:34:39.990Z,0.00
2018-03-24T00:35:39.846Z,0.00
2018-03-24T00:36:39.711Z,0.00
2018-03-24T00:37:39.573Z,0.00
2018-03-24T00:38:39.438Z,0.00
2018-03-24T00:39:39.300Z,0.00
2018-03-24T00:40:39.165Z,0.00
2018-03-24T00:41:39.030Z,0.00
2018-03-24T00:42:38.893Z,0.00
2018-03-24T00:43:38.759Z,0.00
2018-03-24T00:44:38.620Z,0.00
2018-03-24T00:45:38.482Z,0.00
2018-03-24T00:46:38.345Z,0.00
2018-03-24T00:47:38.211Z,0.00
2018-03-24T00:48:38.075Z,0.00
2018-03-24T00:49:38.498Z,0.00
2018-03-24T00:50:37.800Z,0.00
2018-03-24T00:51:37.664Z,0.00
2018-03-24T00:52:37.528Z,0.00
2018-03-24T00:53:37.392Z,0.00
2018-03-24T00:54:37.255Z,0.00
2018-03-24T00:55:37.120Z,0.00
2018-03-24T00:56:36.985Z,0.00
2018-03-24T00:57:36.849Z,0.00
2018-03-24T00:58:36.713Z,0.00
2018-03-24T00:59:36.571Z,0.00
2018-03-24T01:00:36.438Z,0.00
2018-03-24T01:01:36.302Z,0.00
2018-03-24T01:02:36.170Z,0.00
2018-03-24T01:03:36.026Z,0.00
2018-03-24T01:04:35.892Z,0.00
2018-03-24T01:05:35.752Z,0.00
2018-03-24T01:06:35.620Z,0.00
2018-03-24T01:07:35.481Z,0.00
2018-03-24T01:08:35.344Z,0.00
2018-03-24T01:09:35.210Z,0.00
2018-03-24T01:10:35.081Z,0.00
2018-03-24T01:11:34.937Z,0.00
2018-03-24T01:12:34.803Z,0.00
2018-03-24T01:13:34.663Z,0.00
2018-03-24T01:14:34.529Z,0.00
2018-03-24T01:15:34.389Z,0.00
2018-03-24T01:16:34.255Z,0.00
2018-03-24T01:17:34.149Z,0.00
2018-03-24T01:18:33.979Z,0.00
2018-03-24T01:19:33.845Z,0.00
2018-03-24T01:20:33.706Z,0.00
2018-03-24T01:21:33.570Z,0.00
2018-03-24T01:22:33.440Z,0.00
2018-03-24T01:23:33.293Z,0.00
2018-03-24T01:24:33.162Z,0.00
2018-03-24T01:25:33.023Z,0.00
2018-03-24T01:26:32.885Z,0.00
2018-03-24T01:27:32.748Z,0.00
2018-03-24T01:28:32.613Z,0.00
2018-03-24T01:29:32.488Z,0.00
2018-03-24T01:30:32.347Z,0.00
2018-03-24T01:31:32.201Z,0.00
2018-03-24T01:32:32.065Z,0.00
2018-03-24T01:33:31.930Z,0.00
2018-03-24T01:34:31.794Z,0.00
2018-03-24T01:35:31.655Z,0.00
2018-03-24T01:36:31.518Z,0.00
2018-03-24T01:37:31.381Z,0.00
2018-03-24T01:38:31.245Z,0.00
2018-03-24T01:39:31.113Z,0.00
2018-03-24T01:40:30.972Z,0.00
2018-03-24T01:41:30.838Z,0.00
2018-03-24T01:42:30.700Z,0.00
2018-03-24T01:43:30.564Z,0.00
2018-03-24T01:44:30.430Z,0.00
2018-03-24T01:45:30.289Z,0.00
2018-03-24T01:46:30.155Z,0.00
2018-03-24T01:47:30.019Z,0.00
2018-03-24T01:48:29.880Z,0.00
2018-03-24T01:49:29.748Z,0.00
2018-03-24T01:50:29.605Z,0.00
2018-03-24T01:51:29.472Z,0.00
2018-03-24T01:52:29.334Z,0.00
2018-03-24T01:53:29.200Z,0.00
2018-03-24T01:54:29.064Z,0.00
2018-03-24T01:55:28.926Z,0.00
2018-03-24T01:56:28.790Z,0.00
2018-03-24T01:57:28.653Z,0.00
2018-03-24T01:58:28.517Z,0.00
2018-03-24T01:59:28.379Z,0.00
2018-03-24T02:00:28.241Z,0.00
2018-03-24T02:01:28.118Z,0.00
2018-03-24T02:02:27.970Z,0.00
2018-03-24T02:03:27.834Z,0.00
2018-03-24T02:04:27.699Z,0.00
2018-03-24T02:05:27.573Z,0.00
2018-03-24T02:06:27.424Z,0.00
2018-03-24T02:07:27.294Z,0.00
2018-03-24T02:08:27.150Z,0.00
2018-03-24T02:09:27.015Z,0.00
2018-03-24T02:10:26.875Z,0.00
2018-03-24T02:11:26.738Z,0.00
2018-03-24T02:12:26.600Z,0.00
2018-03-24T02:13:26.468Z,0.00
2018-03-24T02:14:26.328Z,0.00
2018-03-24T02:15:26.200Z,0.00
2018-03-24T02:16:26.059Z,0.00
2018-03-24T02:17:25.919Z,0.00
2018-03-24T02:18:25.788Z,0.00
2018-03-24T02:19:25.666Z,0.00
2018-03-24T02:20:25.508Z,0.00
2018-03-24T02:21:25.376Z,0.00
2018-03-24T02:22:25.237Z,0.00
2018-03-24T02:23:25.103Z,0.00
2018-03-24T02:24:24.960Z,0.00
2018-03-24T02:25:24.825Z,0.00
2018-03-24T02:26:24.690Z,0.00
2018-03-24T02:27:24.554Z,0.00
2018-03-24T02:28:24.417Z,0.00
2018-03-24T02:29:24.286Z,0.00
2018-03-24T02:30:24.140Z,0.00
2018-03-24T02:31:24.005Z,0.00
2018-03-24T02:32:23.870Z,0.00
2018-03-24T02:33:23.732Z,0.00
2018-03-24T02:34:23.595Z,0.00
2018-03-24T02:35:23.463Z,0.00
2018-03-24T02:36:23.322Z,0.00
2018-03-24T02:37:23.190Z,0.00
2018-03-24T02:38:23.048Z,0.00
2018-03-24T02:39:22.914Z,0.00
2018-03-24T02:40:22.780Z,0.00
2018-03-24T02:41:22.646Z,0.00
2018-03-24T02:42:22.502Z,0.00
2018-03-24T02:43:22.373Z,0.00
2018-03-24T02:44:22.232Z,0.00
2018-03-24T02:45:22.097Z,0.00
2018-03-24T02:46:21.956Z,0.00
2018-03-24T02:47:21.821Z,0.00
2018-03-24T02:48:21.687Z,0.00
2018-03-24T02:49:21.548Z,0.00
2018-03-24T02:50:21.412Z,0.00
2018-03-24T02:51:21.272Z,0.00
2018-03-24T02:52:21.135Z,0.00
2018-03-24T02:53:21.005Z,0.00
2018-03-24T02:54:20.862Z,0.00
2018-03-24T02:55:20.733Z,0.00
2018-03-24T02:56:20.587Z,0.00
2018-03-24T02:57:20.457Z,0.00
2018-03-24T02:58:20.315Z,0.00
2018-03-24T02:59:20.178Z,0.00
2018-03-24T03:00:20.043Z,0.00
2018-03-24T03:01:19.909Z,0.00
2018-03-24T03:02:19.769Z,0.00
2018-03-24T03:03:19.631Z,0.00
2018-03-24T03:04:19.497Z,0.00
2018-03-24T03:05:19.368Z,0.00
2018-03-24T03:06:19.223Z,0.00
2018-03-24T03:07:19.086Z,0.00
2018-03-24T03:08:18.950Z,0.00
2018-03-24T03:09:18.813Z,0.00
2018-03-24T03:10:18.679Z,0.00
2018-03-24T03:11:18.541Z,0.00
2018-03-24T03:12:18.402Z,0.00
2018-03-24T03:13:18.267Z,0.00
2018-03-24T03:14:18.130Z,0.00
2018-03-24T03:15:17.994Z,0.00
2018-03-24T03:16:17.857Z,0.00
2018-03-24T03:17:17.721Z,0.00
2018-03-24T03:18:17.584Z,0.00
2018-03-24T03:19:17.450Z,0.00
2018-03-24T03:20:17.313Z,0.00
2018-03-24T03:21:17.174Z,0.00
2018-03-24T03:22:17.036Z,0.00
2018-03-24T03:23:16.902Z,0.00
2018-03-24T03:24:16.765Z,0.00
2018-03-24T03:25:16.632Z,0.00
2018-03-24T03:26:16.493Z,0.00
2018-03-24T03:27:16.352Z,0.00
2018-03-24T03:28:16.216Z,0.00
2018-03-24T03:29:16.083Z,0.00
2018-03-24T03:30:15.946Z,0.00
2018-03-24T03:31:15.809Z,0.00
2018-03-24T03:32:15.670Z,0.00
2018-03-24T03:33:15.537Z,0.00
2018-03-24T03:34:15.399Z,0.00
2018-03-24T03:35:15.268Z,0.00
2018-03-24T03:36:15.123Z,0.00
2018-03-24T03:37:14.987Z,0.00
2018-03-24T03:38:14.849Z,0.00
2018-03-24T03:39:14.712Z,0.00
2018-03-24T03:40:14.577Z,0.00
2018-03-24T03:41:14.442Z,0.00
2018-03-24T03:42:14.302Z,0.00
2018-03-24T03:43:14.168Z,0.00
2018-03-24T03:44:14.036Z,0.00
2018-03-24T03:45:13.893Z,0.00
2018-03-24T03:46:13.757Z,0.00
2018-03-24T03:47:13.622Z,0.00
2018-03-24T03:48:13.489Z,0.00
2018-03-24T03:49:13.346Z,0.00
2018-03-24T03:50:13.208Z,0.00
2018-03-24T03:51:13.073Z,0.00
2018-03-24T03:52:12.935Z,0.00
2018-03-24T03:53:12.806Z,0.00
2018-03-24T03:54:12.664Z,0.00
2018-03-24T03:55:12.528Z,0.00
2018-03-24T03:56:12.391Z,0.00
2018-03-24T03:57:12.254Z,0.00
2018-03-24T03:58:12.117Z,0.00
2018-03-24T03:59:11.979Z,0.00
2018-03-24T04:00:11.844Z,0.00
2018-03-24T04:01:11.708Z,0.00
2018-03-24T04:02:11.570Z,0.00
2018-03-24T04:03:11.434Z,0.00
2018-03-24T04:04:11.297Z,0.00
2018-03-24T04:05:11.159Z,0.00
2018-03-24T04:06:11.025Z,0.00
2018-03-24T04:07:10.886Z,0.00
2018-03-24T04:08:10.749Z,0.00
2018-03-24T04:09:10.615Z,0.00
2018-03-24T04:10:10.475Z,0.00
2018-03-24T04:11:10.399Z,0.00
2018-03-24T04:12:10.204Z,0.00
2018-03-24T04:13:10.066Z,0.00
2018-03-24T04:14:09.929Z,0.00
2018-03-24T04:15:09.791Z,0.00
2018-03-24T04:16:09.655Z,0.00
2018-03-24T04:17:09.520Z,0.00
2018-03-24T04:18:09.381Z,0.00
2018-03-24T04:19:09.245Z,0.00
2018-03-24T04:20:09.108Z,0.00
2018-03-24T04:21:08.972Z,0.00
2018-03-24T04:22:08.832Z,0.00
2018-03-24T04:23:08.696Z,0.00
2018-03-24T04:24:08.561Z,0.00
2018-03-24T04:25:08.421Z,0.00
2018-03-24T04:26:08.293Z,0.00
2018-03-24T04:27:08.152Z,0.00
2018-03-24T04:28:08.014Z,0.00
2018-03-24T04:29:07.877Z,0.00
2018-03-24T04:30:07.742Z,0.00
2018-03-24T04:31:07.608Z,0.00
2018-03-24T04:32:07.466Z,0.00
2018-03-24T04:33:07.330Z,0.00
2018-03-24T04:34:07.194Z,0.00
2018-03-24T04:35:07.061Z,0.00
2018-03-24T04:36:06.921Z,0.00
2018-03-24T04:37:06.786Z,0.00
2018-03-24T04:38:06.653Z,0.00
2018-03-24T04:39:06.512Z,0.00
2018-03-24T04:40:06.372Z,0.00
2018-03-24T04:41:06.239Z,0.00
2018-03-24T04:42:06.098Z,0.00
2018-03-24T04:43:05.962Z,0.00
2018-03-24T04:44:05.825Z,0.00
2018-03-24T04:45:05.690Z,0.00
2018-03-24T04:46:05.553Z,0.00
2018-03-24T04:47:05.426Z,0.00
2018-03-24T04:48:05.284Z,0.00
2018-03-24T04:49:05.143Z,0.00
2018-03-24T04:50:05.006Z,0.00
2018-03-24T04:51:04.869Z,0.00
2018-03-24T04:52:04.732Z,0.00
2018-03-24T04:53:04.597Z,0.00
2018-03-24T04:54:04.462Z,0.00
2018-03-24T04:55:04.328Z,0.00
2018-03-24T04:56:04.187Z,0.00
2018-03-24T04:57:04.050Z,0.00
2018-03-24T04:58:03.911Z,0.00
2018-03-24T04:59:03.784Z,0.00
2018-03-24T05:00:03.637Z,0.00
2018-03-24T05:01:03.506Z,0.00
2018-03-24T05:02:03.367Z,0.00
2018-03-24T05:03:03.228Z,0.00
2018-03-24T05:04:03.093Z,0.00
2018-03-24T05:05:02.959Z,0.00
2018-03-24T05:06:02.816Z,0.00
2018-03-24T05:07:02.683Z,0.00
2018-03-24T05:08:02.570Z,0.00
2018-03-24T05:09:02.408Z,0.00
2018-03-24T05:10:02.270Z,0.00
2018-03-24T05:11:02.132Z,0.00
2018-03-24T05:12:01.997Z,0.00
2018-03-24T05:13:01.865Z,0.00
2018-03-24T05:14:01.723Z,0.00
2018-03-24T05:15:01.588Z,0.00
2018-03-24T05:16:01.453Z,5.63
2018-03-24T05:17:01.313Z,5.63
2018-03-24T05:18:01.177Z,5.63
2018-03-24T05:19:01.040Z,5.63
2018-03-24T05:20:00.905Z,5.63
2018-03-24T05:21:00.768Z,5.63
2018-03-24T05:22:00.631Z,5.63
2018-03-24T05:23:00.490Z,5.63
2018-03-24T05:24:00.358Z,5.63
2018-03-24T05:25:00.218Z,11.25
2018-03-24T05:26:00.082Z,11.25
2018-03-24T05:26:59.949Z,11.25
2018-03-24T05:27:59.809Z,11.25
2018-03-24T05:28:59.675Z,11.25
2018-03-24T05:29:59.535Z,11.25
2018-03-24T05:30:59.398Z,16.88
2018-03-24T05:31:59.268Z,16.88
2018-03-24T05:32:59.123Z,16.88
2018-03-24T05:33:58.986Z,16.88
2018-03-24T05:34:58.849Z,16.88
2018-03-24T05:35:58.715Z,16.88
2018-03-24T05:36:58.575Z,16.88
2018-03-24T05:37:58.440Z,22.50
2018-03-24T05:38:58.331Z,22.50
2018-03-24T05:39:58.166Z,22.50
2018-03-24T05:40:58.032Z,22.50
2018-03-24T05:41:57.894Z,22.50
2018-03-24T05:42:57.754Z,22.50
2018-03-24T05:43:57.620Z,22.50
2018-03-24T05:44:57.483Z,28.13
2018-03-24T05:45:57.347Z,28.13
2018-03-24T05:46:57.211Z,28.13
2018-03-24T05:47:57.076Z,28.13
2018-03-24T05:48:56.937Z,28.13
2018-03-24T05:49:56.799Z,28.13
2018-03-24T05:50:56.663Z,28.13
2018-03-24T05:51:56.526Z,33.75
2018-03-24T05:52:56.398Z,33.75
2018-03-24T05:53:56.252Z,33.75
2018-03-24T05:54:56.115Z,33.75
2018-03-24T05:55:55.981Z,33.75
2018-03-24T05:56:55.843Z,33.75
2018-03-24T05:57:55.707Z,33.75
2018-03-24T05:58:55.572Z,39.38
2018-03-24T05:59:55.435Z,39.38
2018-03-24T06:00:55.300Z,39.38
2018-03-24T06:01:55.159Z,39.38
2018-03-24T06:02:55.025Z,39.38
2018-03-24T06:03:54.887Z,39.38
2018-03-24T06:04:54.753Z,39.38
2018-03-24T06:05:54.614Z,39.38
2018-03-24T06:06:54.477Z,45.00
2018-03-24T06:07:54.343Z,45.00
2018-03-24T06:08:54.208Z,45.00
2018-03-24T06:09:54.113Z,45.00
2018-03-24T06:10:53.934Z,45.00
2018-03-24T06:11:53.797Z,45.00
2018-03-24T06:12:53.659Z,45.00
2018-03-24T06:13:53.525Z,45.00
2018-03-24T06:14:53.388Z,45.00
2018-03-24T06:15:53.252Z,50.63
2018-03-24T06:16:53.116Z,50.63
2018-03-24T06:17:52.978Z,50.63
2018-03-24T06:18:52.842Z,50.63
2018-03-24T06:19:52.707Z,50.63
2018-03-24T06:20:52.572Z,50.63
2018-03-24T06:21:52.435Z,50.63
2018-03-24T06:22:52.299Z,56.25
2018-03-24T06:23:52.166Z,61.88
2018-03-24T06:24:52.031Z,67.50
2018-03-24T06:25:51.890Z,78.75
2018-03-24T06:26:51.756Z,84.38
2018-03-24T06:27:51.619Z,101.25
2018-03-24T06:28:51.482Z,112.50
2018-03-24T06:29:51.347Z,118.13
2018-03-24T06:30:51.213Z,123.75
2018-03-24T06:31:51.081Z,129.38
2018-03-24T06:32:50.942Z,129.38
2018-03-24T06:33:50.810Z,129.38
2018-03-24T06:34:50.677Z,135.00
2018-03-24T06:35:50.537Z,135.00
2018-03-24T06:36:50.405Z,135.00
2018-03-24T06:37:50.468Z,135.00
2018-03-24T06:38:50.174Z,140.63
2018-03-24T06:39:50.007Z,140.63
2018-03-24T06:40:49.863Z,140.63
2018-03-24T06:41:49.732Z,140.63
2018-03-24T06:42:49.628Z,140.63
2018-03-24T06:43:49.461Z,146.25
2018-03-24T06:44:49.409Z,146.25
2018-03-24T06:45:49.262Z,146.25
2018-03-24T06:46:49.062Z,146.25
2018-03-24T06:47:48.934Z,146.25
2018-03-24T06:48:48.795Z,146.25
2018-03-24T06:49:48.708Z,146.25
2018-03-24T06:50:48.664Z,146.25
2018-03-24T06:51:48.497Z,151.88
2018-03-24T06:52:48.267Z,151.88
2018-03-24T06:53:48.130Z,151.88
2018-03-24T06:54:47.998Z,151.88
2018-03-24T06:55:47.866Z,151.88
2018-03-24T06:56:47.787Z,157.50
2018-03-24T06:57:47.599Z,157.50
2018-03-24T06:58:47.467Z,123.75
2018-03-24T06:59:47.334Z,123.75
2018-03-24T07:00:47.206Z,123.75
2018-03-24T07:01:47.096Z,123.75
2018-03-24T07:02:46.938Z,123.75
2018-03-24T07:03:46.807Z,123.75
2018-03-24T07:04:46.676Z,129.38
2018-03-24T07:05:46.543Z,129.38
2018-03-24T07:06:46.412Z,129.38
2018-03-24T07:07:46.338Z,129.38
2018-03-24T07:08:46.149Z,129.38
2018-03-24T07:09:46.017Z,129.38
2018-03-24T07:10:45.886Z,129.38
2018-03-24T07:11:45.773Z,129.38
2018-03-24T07:12:45.637Z,129.38
2018-03-24T07:13:45.490Z,135.00
2018-03-24T07:14:45.362Z,135.00
2018-03-24T07:15:45.250Z,135.00
2018-03-24T07:16:45.100Z,135.00
2018-03-24T07:17:44.964Z,135.00
2018-03-24T07:18:44.849Z,135.00
2018-03-24T07:19:44.703Z,135.00
2018-03-24T07:20:44.578Z,135.00
2018-03-24T07:21:44.445Z,135.00
2018-03-24T07:22:44.313Z,140.63
2018-03-24T07:23:44.181Z,140.63
2018-03-24T07:24:44.049Z,140.63
2018-03-24T07:25:43.920Z,140.63
2018-03-24T07:26:43.792Z,140.63
2018-03-24T07:27:43.703Z,140.63
2018-03-24T07:28:43.529Z,140.63
2018-03-24T07:29:43.399Z,146.25
2018-03-24T07:30:43.271Z,146.25
2018-03-24T07:31:43.140Z,146.25
2018-03-24T07:32:43.008Z,146.25
2018-03-24T07:33:43.103Z,146.25
2018-03-24T07:34:42.762Z,146.25
2018-03-24T07:35:42.622Z,146.25
2018-03-24T07:36:42.492Z,146.25
2018-03-24T07:37:42.402Z,146.25
2018-03-24T07:38:42.240Z,146.25
2018-03-24T07:39:42.104Z,146.25
2018-03-24T07:40:42.097Z,146.25
2018-03-24T07:41:41.845Z,146.25
2018-03-24T07:42:41.719Z,146.25
2018-03-24T07:43:41.586Z,146.25
2018-03-24T07:44:41.464Z,146.25
2018-03-24T07:45:41.329Z,146.25
2018-03-24T07:46:41.199Z,146.25
2018-03-24T07:47:41.097Z,151.88
2018-03-24T07:48:40.945Z,157.50
2018-03-24T07:49:40.813Z,157.50
2018-03-24T07:50:40.689Z,151.88
2018-03-24T07:51:40.593Z,151.88
2018-03-24T07:52:40.426Z,151.88
2018-03-24T07:53:40.305Z,151.88
2018-03-24T07:54:40.169Z,151.88
2018-03-24T07:55:40.044Z,157.50
2018-03-24T07:56:39.913Z,157.50
2018-03-24T07:57:39.782Z,157.50
2018-03-24T07:58:39.653Z,157.50
2018-03-24T07:59:39.525Z,157.50
2018-03-24T08:00:39.398Z,157.50
2018-03-24T08:01:39.267Z,157.50
2018-03-24T08:02:39.144Z,163.13
2018-03-24T08:03:39.010Z,163.13
2018-03-24T08:04:38.882Z,163.13
2018-03-24T08:05:38.752Z,163.13
2018-03-24T08:06:38.626Z,163.13
2018-03-24T08:07:38.496Z,163.13
2018-03-24T08:08:38.368Z,163.13
2018-03-24T08:09:38.289Z,174.38
2018-03-24T08:10:38.150Z,168.75
2018-03-24T08:11:38.054Z,168.75
2018-03-24T08:12:37.908Z,168.75
2018-03-24T08:13:37.779Z,168.75
2018-03-24T08:14:37.597Z,168.75
2018-03-24T08:15:37.469Z,168.75
2018-03-24T08:16:37.651Z,168.75
2018-03-24T08:17:37.216Z,168.75
2018-03-24T08:18:37.084Z,174.38
2018-03-24T08:19:36.959Z,174.38
2018-03-24T08:20:36.831Z,174.38
2018-03-24T08:21:36.730Z,174.38
2018-03-24T08:22:36.577Z,174.38
2018-03-24T08:23:36.475Z,174.38
2018-03-24T08:24:36.342Z,174.38
2018-03-24T08:25:36.318Z,180.00
2018-03-24T08:26:36.088Z,180.00
2018-03-24T08:27:35.935Z,180.00
2018-03-24T08:28:35.807Z,180.00
2018-03-24T08:29:35.681Z,180.00
2018-03-24T08:30:35.553Z,180.00
2018-03-24T08:31:35.452Z,180.00
2018-03-24T08:32:35.310Z,185.63
2018-03-24T08:33:35.176Z,185.63
2018-03-24T08:34:35.129Z,185.63
2018-03-24T08:35:34.914Z,185.63
2018-03-24T08:36:34.788Z,185.63
2018-03-24T08:37:34.663Z,185.63
2018-03-24T08:38:34.617Z,185.63
2018-03-24T08:39:34.411Z,191.25
2018-03-24T08:40:34.278Z,191.25
2018-03-24T08:41:34.151Z,191.25
2018-03-24T08:42:34.025Z,191.25
2018-03-24T08:43:33.898Z,191.25
2018-03-24T08:44:33.768Z,191.25
2018-03-24T08:45:33.659Z,191.25
2018-03-24T08:46:33.519Z,191.25
2018-03-24T08:47:33.401Z,196.88
2018-03-24T08:48:33.262Z,196.88
2018-03-24T08:49:33.151Z,196.88
2018-03-24T08:50:33.017Z,196.88
2018-03-24T08:51:32.888Z,196.88
2018-03-24T08:52:32.755Z,196.88
2018-03-24T08:53:32.629Z,196.88
2018-03-24T08:54:32.513Z,196.88
2018-03-24T08:55:32.375Z,196.88
2018-03-24T08:56:32.271Z,196.88
2018-03-24T08:57:32.122Z,202.50
2018-03-24T08:58:32.000Z,202.50
2018-03-24T08:59:31.890Z,202.50
2018-03-24T09:00:31.744Z,202.50
2018-03-24T09:01:31.619Z,202.50
2018-03-24T09:02:31.490Z,202.50
2018-03-24T09:03:31.459Z,202.50
2018-03-24T09:04:31.240Z,202.50
2018-03-24T09:05:31.112Z,202.50
2018-03-24T09:06:31.009Z,202.50
2018-03-24T09:07:30.873Z,202.50
2018-03-24T09:08:30.735Z,208.13
2018-03-24T09:09:30.610Z,208.13
2018-03-24T09:10:30.482Z,208.13
2018-03-24T09:11:30.356Z,208.13
2018-03-24T09:12:30.231Z,208.13
2018-03-24T09:13:30.107Z,208.13
2018-03-24T09:14:29.978Z,208.13
2018-03-24T09:15:29.915Z,208.13
2018-03-24T09:16:29.752Z,208.13
2018-03-24T09:17:29.602Z,208.13
2018-03-24T09:18:29.476Z,208.13
2018-03-24T09:19:29.352Z,213.75
2018-03-24T09:20:29.226Z,213.75
2018-03-24T09:21:29.099Z,213.75
2018-03-24T09:22:28.975Z,213.75
2018-03-24T09:23:28.858Z,213.75
2018-03-24T09:24:28.729Z,213.75
2018-03-24T09:25:28.596Z,213.75
2018-03-24T09:26:28.473Z,213.75
2018-03-24T09:27:28.346Z,213.75
2018-03-24T09:28:28.221Z,213.75
2018-03-24T09:29:28.095Z,219.38
2018-03-24T09:30:27.971Z,219.38
2018-03-24T09:31:27.846Z,219.38
2018-03-24T09:32:27.723Z,219.38
2018-03-24T09:33:27.594Z,219.38
2018-03-24T09:34:27.469Z,219.38
2018-03-24T09:35:27.343Z,219.38
2018-03-24T09:36:27.220Z,219.38
2018-03-24T09:37:27.099Z,219.38
2018-03-24T09:38:26.964Z,219.38
2018-03-24T09:39:26.839Z,219.38
2018-03-24T09:40:26.716Z,225.00
2018-03-24T09:41:26.587Z,225.00
2018-03-24T09:42:26.462Z,225.00
2018-03-24T09:43:26.359Z,225.00
2018-03-24T09:44:26.214Z,225.00
2018-03-24T09:45:26.086Z,225.00
2018-03-24T09:46:25.960Z,225.00
2018-03-24T09:47:25.841Z,225.00
2018-03-24T09:48:25.724Z,225.00
2018-03-24T09:49:25.584Z,225.00
2018-03-24T09:50:25.460Z,225.00
2018-03-24T09:51:25.339Z,225.00
2018-03-24T09:52:25.216Z,225.00
2018-03-24T09:53:25.083Z,225.00
2018-03-24T09:54:24.955Z,225.00
2018-03-24T09:55:24.830Z,225.00
2018-03-24T09:56:24.731Z,225.00
2018-03-24T09:57:24.605Z,225.00
2018-03-24T09:58:24.460Z,225.00
2018-03-24T09:59:24.347Z,230.63
2018-03-24T10:00:24.222Z,230.63
2018-03-24T10:01:24.097Z,230.63
2018-03-24T10:02:23.957Z,230.63
2018-03-24T10:03:23.906Z,230.63
2018-03-24T10:04:23.709Z,230.63
2018-03-24T10:05:23.605Z,230.63
2018-03-24T10:06:23.459Z,230.63
2018-03-24T10:07:23.335Z,230.63
2018-03-24T10:08:23.245Z,236.25
2018-03-24T10:09:23.084Z,236.25
2018-03-24T10:10:22.972Z,236.25
2018-03-24T10:11:22.907Z,236.25
2018-03-24T10:12:22.716Z,236.25
2018-03-24T10:13:22.592Z,236.25
2018-03-24T10:14:22.459Z,236.25
2018-03-24T10:15:22.337Z,236.25
2018-03-24T10:16:23.075Z,236.25
2018-03-24T10:17:22.091Z,236.25
2018-03-24T10:18:21.964Z,241.88
2018-03-24T10:19:21.839Z,241.88
2018-03-24T10:20:21.716Z,241.88
2018-03-24T10:21:21.591Z,241.88
2018-03-24T10:22:21.491Z,241.88
2018-03-24T10:23:21.345Z,241.88
2018-03-24T10:24:21.218Z,241.88
2018-03-24T10:25:21.096Z,247.50
2018-03-24T10:26:20.968Z,247.50
2018-03-24T10:27:20.845Z,247.50
2018-03-24T10:28:20.720Z,253.13
2018-03-24T10:29:20.597Z,253.13
2018-03-24T10:30:20.474Z,253.13
2018-03-24T10:31:20.345Z,253.13
2018-03-24T10:32:20.221Z,253.13
2018-03-24T10:33:20.098Z,253.13
2018-03-24T10:34:19.972Z,264.38
2018-03-24T10:35:19.848Z,258.75
2018-03-24T10:36:19.724Z,258.75
2018-03-24T10:37:19.600Z,258.75
2018-03-24T10:38:19.474Z,258.75
2018-03-24T10:39:19.349Z,258.75
2018-03-24T10:40:19.236Z,258.75
2018-03-24T10:41:19.097Z,264.38
2018-03-24T10:42:18.976Z,264.38
2018-03-24T10:43:18.850Z,264.38
2018-03-24T10:44:18.728Z,264.38
2018-03-24T10:45:18.597Z,264.38
2018-03-24T10:46:18.476Z,264.38
2018-03-24T10:47:18.358Z,264.38
2018-03-24T10:48:18.226Z,264.38
2018-03-24T10:49:18.101Z,264.38
2018-03-24T10:50:17.975Z,270.00
2018-03-24T10:51:17.876Z,270.00
2018-03-24T10:52:17.727Z,270.00
2018-03-24T10:53:17.626Z,270.00
2018-03-24T10:54:17.474Z,270.00
2018-03-24T10:55:17.355Z,270.00
2018-03-24T10:56:17.227Z,270.00
2018-03-24T10:57:17.103Z,275.63
2018-03-24T10:58:16.976Z,275.63
2018-03-24T10:59:16.852Z,275.63
2018-03-24T11:00:16.733Z,275.63
2018-03-24T11:01:16.603Z,275.63
2018-03-24T11:02:16.480Z,281.25
2018-03-24T11:03:16.357Z,281.25
2018-03-24T11:04:16.230Z,281.25
2018-03-24T11:05:16.108Z,281.25
2018-03-24T11:06:15.984Z,286.88
2018-03-24T11:07:15.862Z,286.88
2018-03-24T11:08:15.737Z,286.88
2018-03-24T11:09:15.611Z,286.88
2018-03-24T11:10:15.489Z,286.88
2018-03-24T11:11:15.395Z,292.50
2018-03-24T11:12:15.240Z,292.50
2018-03-24T11:13:15.116Z,292.50
2018-03-24T11:14:14.994Z,298.13
2018-03-24T11:15:14.870Z,298.13
2018-03-24T11:16:14.745Z,298.13
2018-03-24T11:17:14.619Z,298.13
2018-03-24T11:18:14.497Z,298.13
2018-03-24T11:19:14.372Z,303.75
2018-03-24T11:20:14.254Z,303.75
2018-03-24T11:21:14.127Z,303.75
2018-03-24T11:22:14.005Z,303.75
2018-03-24T11:23:13.886Z,309.38
2018-03-24T11:24:13.757Z,309.38
2018-03-24T11:25:13.631Z,315.00
2018-03-24T11:26:13.543Z,315.00
2018-03-24T11:27:13.389Z,315.00
2018-03-24T11:28:13.267Z,326.25
2018-03-24T11:29:13.151Z,326.25
2018-03-24T11:30:13.053Z,320.63
2018-03-24T11:31:12.958Z,320.63
2018-03-24T11:32:12.774Z,326.25
2018-03-24T11:33:13.511Z,326.25
2018-03-24T11:34:12.574Z,326.25
2018-03-24T11:35:12.404Z,326.25
2018-03-24T13:10:02.730Z,433.13
2018-03-24T13:11:02.552Z,438.75
2018-03-24T13:12:55.208Z,438.75
2018-03-24T13:13:55.094Z,444.38
2018-03-24T13:15:47.761Z,444.38
2018-03-24T13:16:47.590Z,444.38
2018-03-24T13:18:40.247Z,444.38
2018-03-24T13:19:40.114Z,438.75
2018-03-24T13:21:32.817Z,438.75
2018-03-24T13:22:32.641Z,438.75
2018-03-24T13:24:26.159Z,438.75
2018-03-24T13:25:26.026Z,444.38
2018-03-24T13:27:18.721Z,444.38
2018-03-24T13:28:18.558Z,455.63
2018-03-24T13:30:11.226Z,450.00
2018-03-24T13:31:11.089Z,450.00
2018-03-24T13:33:03.797Z,455.63
2018-03-24T13:34:03.623Z,455.63
2018-03-24T13:35:56.284Z,455.63
2018-03-24T13:36:56.157Z,455.63
2018-03-24T13:38:48.856Z,461.25
2018-03-24T13:39:48.693Z,466.88
2018-03-24T13:41:41.365Z,534.38
2018-03-24T13:42:41.230Z,568.13
2018-03-24T13:44:33.928Z,579.38
2018-03-24T13:45:33.768Z,579.38
2018-03-24T13:47:26.474Z,579.38
2018-03-24T13:48:26.311Z,579.38
2018-03-24T13:50:18.976Z,579.38
2018-03-24T13:51:18.844Z,579.38
2018-03-24T13:53:11.550Z,579.38
2018-03-24T13:54:11.379Z,579.38
2018-03-24T13:56:04.049Z,579.38
2018-03-24T13:57:03.925Z,585.00
2018-03-24T13:58:56.624Z,601.88
2018-03-24T13:59:56.463Z,596.25
2018-03-24T14:01:49.132Z,663.75
2018-03-24T14:02:49.005Z,1726.88
2018-03-24T14:04:41.716Z,3729.38
2018-03-24T14:05:41.600Z,3735.00
2018-03-24T14:07:35.065Z,3690.00
2018-03-24T14:08:34.936Z,3656.25
2018-03-24T14:10:27.639Z,3650.63
2018-03-24T14:11:27.529Z,3695.63
2018-03-24T14:13:20.216Z,3796.88
2018-03-24T14:14:20.051Z,3825.00
2018-03-24T14:16:12.790Z,3757.50
2018-03-24T14:17:12.645Z,3723.75
2018-03-24T14:19:05.298Z,3577.50
2018-03-24T14:20:05.190Z,3498.75
2018-03-24T14:21:58.738Z,3510.00
2018-03-24T14:22:58.574Z,3633.75
2018-03-24T14:24:51.263Z,3780.00
2018-03-24T14:25:51.143Z,3796.88
2018-03-24T14:27:58.930Z,3706.88
2018-03-24T14:28:58.769Z,3425.63
2018-03-24T14:30:51.441Z,3144.38
2018-03-24T14:31:51.319Z,3099.38
2018-03-24T14:33:44.041Z,2851.88
2018-03-24T14:34:43.877Z,2745.00
2018-03-24T14:36:36.554Z,1653.75
2018-03-24T14:37:36.433Z,1237.50
2018-03-24T14:39:29.148Z,708.75
2018-03-24T14:40:28.992Z,956.25
2018-03-24T14:42:21.674Z,652.50
2018-03-24T14:43:21.583Z,421.88
2018-03-24T14:45:14.256Z,511.88
2018-03-24T14:46:14.098Z,810.00
2018-03-24T14:48:06.770Z,601.88
2018-03-24T14:49:08.777Z,652.50
2018-03-24T14:50:59.356Z,517.50
2018-03-24T14:51:59.189Z,466.88
2018-03-24T14:53:52.066Z,607.50
2018-03-24T14:54:51.733Z,348.75